Главная страница
METAR-TAF:

METAR-TAF

Аэропорты :

Эрншёльдсвик, Швеция

широта: 63-24N, долгота: 018-58E, высота над уровнем моря: 103 м

Текущие метеонаблюдения

Эта сводка был подготовлена 32 минут назад, в 11:50 UTC
Ветер 5 Узел от восточно-северо-восточный, изменяющийся между северо-северо-восточный и восточно-юго-восточный
Температура 9°C
Влажность 100%
Давление 1001 hPa
Видимость: 0600 м
туман

METAR: ESNO 241150Z AUTO 07005KT 020V110 0600 R12/1100D R30/1000D FG OVC001/// 09/09 Q1001

Время: 14:22 (12:22 UTC)

Прогноз

Эта сводка был подготовлена 8 часа и 41 минут назад, в 03:41 UTC
Прогноз действительный с 24-го 03 UTC до 24-го 07 UTC
Ветер 7 Узел от северо-северо-восточный
Видимость 10 км и более
Рассеянная облачность на высоте 3000 фута
небольшой дождь
Вероятность 40%
С 24-го 06 UTC до 24-го 07 UTC
Рассеянная облачность на высоте 1200 фута

TAF: ESNO 240341Z 2403/2407 03007KT 9999 -RA BKN030 PROB40 2406/2407 BKN012

Метеонаблюдения и прогнозы для более 4000 аэропортов (сводки METAR и TAF).

Имеющиеся станции представлены на карте желтыми и красными точками.

Чтобы увидеть название станции, наведите на нее мышь.

Затем щелкните, чтобы увидеть метеонаблюдения и метеопрогнозы.

Управление картой: чтобы увеличить масштаб, щелкните зеленые кнопки с черным крестиком; чтобы уменьшить масштаб, щелкните зеленую кнопку с тире; для просмотра соседних карт щелкайте зеленые стрелки.


METAR-TAF: